OEBA/ABT METAR and TAF weather

Enter ICAO airport designator
Station Type Date Time Source
OEBA METAR 2021/07/29 18:00 UTC NOAA

OEBA 291800Z 17008KT 9999 FEW025CB SCT030 28/20 Q1016 NOSIG


Station Type Date Time Source
OEBA Decoded METAR 2021/07/29 18:00 UTC NOAA

Al Baha, Saudi Arabia (OEBA) 20-18N 041-38E 1662M
Jul 29, 2021 - 02:00 PM EDT / 2021.07.29 1800 UTC
Wind: from the S (170 degrees) at 9 MPH (8 KT):0
Visibility: greater than 7 mile(s):0
Sky conditions: partly cloudy
Weather: Cumulonimbus clouds observed
Temperature: 82 F (28 C)
Dew Point: 68 F (20 C)
Relative Humidity: 61%
Pressure (altimeter): 30.00 in. Hg (1016 hPa)
ob: OEBA 291800Z 17008KT 9999 FEW025CB SCT030 28/20 Q1016 NOSIG
cycle: 18

Station Type Date Time Source
OEBA TAF 2021/07/29 12:04 UTC NOAA

TAF OEBA 291100Z 2912/3018 35012KT 9999 SCT030
TEMPO 2912/2918 VRB20KT 6000 FEW025CB
BECMG 2920/2922 30010KT
BECMG 3012/3014 27015KT
TEMPO 3012/3018 VRB25KT 6000 TSRA FEW025CB BKN030

Example: see airport list